createdAt,value
2022-12-24T00:01:18.312Z,87.35
2022-12-24T00:04:20.924Z,87.38
2022-12-24T00:07:25.030Z,87.43
2022-12-24T00:10:27.769Z,87.42
2022-12-24T00:13:30.471Z,87.25
2022-12-24T00:16:33.159Z,86.64
2022-12-24T00:19:35.916Z,87.53
2022-12-24T00:22:40.009Z,87.66
2022-12-24T00:25:42.803Z,87.49
2022-12-24T00:28:45.526Z,87.62
2022-12-24T00:31:48.234Z,87.80
2022-12-24T00:34:50.944Z,86.69
2022-12-24T00:37:55.108Z,87.14
2022-12-24T00:41:00.689Z,87.29
2022-12-24T00:44:05.877Z,87.11
2022-12-24T00:47:12.106Z,87.22
2022-12-24T00:50:15.095Z,86.99
2022-12-24T00:53:19.224Z,87.27
2022-12-24T00:56:22.046Z,87.17
2022-12-24T00:59:24.809Z,86.97
2022-12-24T01:02:27.623Z,87.20
2022-12-24T01:05:30.497Z,87.33
2022-12-24T01:08:34.765Z,87.30
2022-12-24T01:11:37.554Z,86.89
2022-12-24T01:14:40.265Z,87.20
2022-12-24T01:17:42.951Z,86.87
2022-12-24T01:20:45.687Z,86.78
2022-12-24T01:23:49.938Z,87.06
2022-12-24T01:26:52.634Z,87.15
2022-12-24T01:29:55.380Z,86.90
2022-12-24T01:32:58.045Z,87.29
2022-12-24T01:36:03.722Z,86.94
2022-12-24T01:39:07.903Z,86.78
2022-12-24T01:42:35.291Z,86.54
2022-12-24T01:45:46.354Z,86.96
2022-12-24T01:48:50.116Z,87.17
2022-12-24T01:51:53.930Z,86.77
2022-12-24T01:55:00.029Z,87.29
2022-12-24T01:58:02.777Z,87.76
2022-12-24T02:01:06.027Z,87.99
2022-12-24T02:04:12.570Z,87.36
2022-12-24T02:07:15.237Z,87.11
2022-12-24T02:10:19.472Z,87.73
2022-12-24T02:13:22.212Z,87.91
2022-12-24T02:16:30.839Z,87.96
2022-12-24T02:19:56.377Z,87.58
2022-12-24T02:23:13.781Z,87.73
2022-12-24T02:26:28.323Z,88.43
2022-12-24T02:29:59.703Z,87.99
2022-12-24T02:33:08.906Z,88.24
2022-12-24T02:36:13.220Z,88.06
2022-12-24T02:39:18.077Z,88.08
2022-12-24T02:42:25.025Z,87.80
2022-12-24T02:45:30.130Z,87.87
2022-12-24T02:48:32.896Z,88.31
2022-12-24T02:51:35.659Z,87.72
2022-12-24T02:54:38.451Z,87.86
2022-12-24T02:57:57.982Z,87.60
2022-12-24T03:01:16.802Z,88.50
2022-12-24T03:04:39.290Z,88.47
2022-12-24T03:07:45.125Z,88.30
2022-12-24T03:10:51.884Z,88.85
2022-12-24T03:13:54.650Z,88.86
2022-12-24T03:16:59.453Z,89.02
2022-12-24T03:20:02.164Z,89.24
2022-12-24T03:23:05.002Z,89.31
2022-12-24T03:26:09.094Z,89.46
2022-12-24T03:29:11.831Z,89.10
2022-12-24T03:32:15.976Z,89.94
2022-12-24T03:35:18.750Z,89.94
2022-12-24T03:38:23.860Z,89.72
2022-12-24T03:41:26.529Z,89.98
2022-12-24T03:44:29.532Z,89.78
2022-12-24T03:47:33.700Z,89.79
2022-12-24T03:50:36.548Z,90.15
2022-12-24T03:53:39.353Z,89.57
2022-12-24T03:56:43.108Z,90.55
2022-12-24T03:59:45.776Z,89.71
2022-12-24T04:02:49.966Z,90.04
2022-12-24T04:06:02.325Z,90.44
2022-12-24T04:09:05.959Z,90.37
2022-12-24T04:12:08.940Z,89.88
2022-12-24T04:15:12.192Z,90.30
2022-12-24T04:18:16.294Z,89.94
2022-12-24T04:21:19.044Z,89.90
2022-12-24T04:24:21.757Z,90.47
2022-12-24T04:27:30.161Z,90.29
2022-12-24T04:30:33.412Z,89.98
2022-12-24T04:33:37.996Z,90.25
2022-12-24T04:36:40.772Z,89.84
2022-12-24T04:39:43.454Z,90.09
2022-12-24T04:42:46.171Z,90.31
2022-12-24T04:45:49.449Z,90.33
2022-12-24T04:48:54.090Z,90.11
2022-12-24T04:51:56.916Z,90.23
2022-12-24T04:55:01.776Z,90.35
2022-12-24T04:58:06.969Z,90.18
2022-12-24T05:01:11.085Z,89.80
2022-12-24T05:04:15.391Z,89.67
2022-12-24T05:07:18.172Z,90.42
2022-12-24T05:10:20.868Z,90.20
2022-12-24T05:13:25.135Z,90.41
2022-12-24T05:16:29.673Z,90.23
2022-12-24T05:19:33.888Z,89.92
2022-12-24T05:22:54.077Z,90.46
2022-12-24T05:28:54.661Z,90.08
2022-12-24T05:31:57.203Z,90.78
2022-12-24T05:34:59.781Z,90.26
2022-12-24T05:38:02.338Z,90.54
2022-12-24T05:41:04.991Z,90.15
2022-12-24T05:44:08.925Z,90.07
2022-12-24T05:47:11.532Z,90.17
2022-12-24T05:50:14.137Z,89.93
2022-12-24T05:53:16.765Z,90.11
2022-12-24T05:56:20.609Z,90.41
2022-12-24T05:59:24.496Z,90.56
2022-12-24T06:02:27.062Z,90.33
2022-12-24T06:05:29.645Z,89.43
2022-12-24T06:08:32.445Z,90.47
2022-12-24T06:11:35.072Z,89.38
2022-12-24T06:14:38.954Z,89.47
2022-12-24T06:17:41.641Z,90.06
2022-12-24T06:20:44.230Z,89.69
2022-12-24T06:23:47.015Z,89.52
2022-12-24T06:26:49.663Z,90.11
2022-12-24T06:29:53.553Z,90.36
2022-12-24T06:32:56.089Z,90.30
2022-12-24T06:35:58.619Z,89.69
2022-12-24T06:39:01.199Z,89.86
2022-12-24T06:42:03.852Z,89.90
2022-12-24T06:45:09.063Z,90.74
2022-12-24T06:48:11.658Z,90.67
2022-12-24T06:51:14.331Z,90.09
2022-12-24T06:54:17.231Z,90.92
2022-12-24T06:57:19.791Z,90.12
2022-12-24T07:00:23.871Z,90.02
2022-12-24T07:03:26.442Z,90.86
2022-12-24T07:06:30.076Z,90.65
2022-12-24T07:09:32.699Z,90.21
2022-12-24T07:12:35.373Z,90.61
2022-12-24T07:15:39.296Z,91.30
2022-12-24T07:18:41.949Z,90.49
2022-12-24T07:21:44.551Z,91.46
2022-12-24T07:24:47.104Z,91.37
2022-12-24T07:27:49.705Z,91.31
2022-12-24T07:30:53.656Z,90.79
2022-12-24T07:33:56.270Z,91.13
2022-12-24T07:36:58.799Z,91.59
2022-12-24T07:40:01.373Z,91.20
2022-12-24T07:43:03.965Z,91.30
2022-12-24T07:46:08.067Z,91.33
2022-12-24T07:49:10.707Z,91.37
2022-12-24T07:52:13.252Z,91.86
2022-12-24T07:55:15.802Z,91.32
2022-12-24T07:58:18.555Z,91.29
2022-12-24T08:01:22.513Z,91.92
2022-12-24T08:04:25.202Z,91.44
2022-12-24T08:07:27.743Z,91.53
2022-12-24T08:10:30.281Z,91.89
2022-12-24T08:13:33.120Z,91.50
2022-12-24T08:16:37.045Z,91.57
2022-12-24T08:19:40.685Z,91.52
2022-12-24T08:22:43.510Z,92.02
2022-12-24T08:25:46.810Z,92.10
2022-12-24T08:28:49.400Z,92.13
2022-12-24T08:31:53.430Z,91.85
2022-12-24T08:34:56.041Z,92.41
2022-12-24T08:37:58.650Z,91.99
2022-12-24T08:41:01.192Z,92.21
2022-12-24T08:44:03.805Z,92.83
2022-12-24T08:47:07.751Z,92.56
2022-12-24T08:50:10.835Z,92.60
2022-12-24T08:53:13.503Z,92.53
2022-12-24T08:56:16.073Z,93.41
2022-12-24T08:59:18.668Z,93.11
2022-12-24T09:02:22.717Z,93.45
2022-12-24T09:05:25.874Z,92.97
2022-12-24T09:08:29.018Z,92.94
2022-12-24T09:11:31.650Z,93.50
2022-12-24T09:14:34.265Z,93.37
2022-12-24T09:17:38.140Z,93.28
2022-12-24T09:20:46.570Z,93.48
2022-12-24T09:23:49.539Z,93.48
2022-12-24T09:26:57.563Z,92.64
2022-12-24T09:30:00.583Z,93.12
2022-12-24T09:33:04.676Z,93.22
2022-12-24T09:36:07.673Z,92.95
2022-12-24T09:39:10.212Z,92.43
2022-12-24T09:42:18.215Z,92.38
2022-12-24T09:45:23.494Z,92.27
2022-12-24T09:48:29.611Z,92.76
2022-12-24T09:51:34.763Z,91.90
2022-12-24T09:54:38.379Z,92.11
2022-12-24T09:57:41.332Z,91.30
2022-12-24T10:00:49.754Z,91.13
2022-12-24T10:03:54.047Z,91.38
2022-12-24T10:06:59.482Z,91.06
2022-12-24T10:10:05.605Z,90.51
2022-12-24T10:13:10.764Z,91.10
2022-12-24T10:16:15.681Z,91.13
2022-12-24T10:19:21.226Z,91.07
2022-12-24T10:22:25.650Z,91.03
2022-12-24T10:25:30.481Z,90.92
2022-12-24T10:28:34.862Z,90.80
2022-12-24T10:31:40.477Z,90.11
2022-12-24T10:34:45.466Z,88.71
2022-12-24T10:37:48.803Z,87.79
2022-12-24T10:40:51.575Z,87.16
2022-12-24T10:43:54.154Z,85.98
2022-12-24T10:46:56.718Z,85.15
2022-12-24T10:50:02.717Z,85.11
2022-12-24T10:53:08.615Z,84.93
2022-12-24T10:56:12.549Z,85.30
2022-12-24T10:59:25.725Z,84.71
2022-12-24T11:02:29.638Z,84.88
2022-12-24T11:05:34.619Z,84.88
2022-12-24T11:08:37.532Z,84.59
2022-12-24T11:11:40.064Z,84.52
2022-12-24T11:14:42.647Z,84.26
2022-12-24T11:17:53.311Z,84.62
2022-12-24T11:20:59.446Z,84.18
2022-12-24T11:24:09.873Z,84.12
2022-12-24T11:27:30.505Z,84.20
2022-12-24T11:30:33.711Z,84.32
2022-12-24T11:33:47.197Z,84.44
2022-12-24T11:36:51.244Z,84.73
2022-12-24T11:39:54.878Z,84.42
2022-12-24T11:43:00.112Z,84.13
2022-12-24T11:46:13.561Z,84.12
2022-12-24T11:49:24.570Z,84.31
2022-12-24T11:52:28.507Z,83.70
2022-12-24T11:55:37.687Z,83.56
2022-12-24T11:58:42.326Z,83.09
2022-12-24T12:01:50.655Z,83.08
2022-12-24T12:04:55.177Z,82.73
2022-12-24T12:08:02.142Z,82.83
2022-12-24T12:11:05.009Z,82.32
2022-12-24T12:14:07.588Z,82.05
2022-12-24T12:17:15.088Z,81.60
2022-12-24T12:20:18.171Z,81.83
2022-12-24T12:23:24.592Z,82.16
2022-12-24T12:26:28.160Z,82.08
2022-12-24T12:29:32.021Z,82.38
2022-12-24T12:32:40.844Z,82.08
2022-12-24T12:35:44.002Z,82.25
2022-12-24T12:38:48.841Z,82.04
2022-12-24T12:41:54.816Z,81.53
2022-12-24T12:45:23.213Z,81.04
2022-12-24T12:48:32.223Z,81.07
2022-12-24T12:51:37.579Z,80.88
2022-12-24T12:54:48.952Z,80.73
2022-12-24T12:57:51.542Z,80.22
2022-12-24T13:00:55.981Z,80.55
2022-12-24T13:04:10.144Z,80.30
2022-12-24T13:07:48.129Z,80.74
2022-12-24T13:11:13.943Z,80.25
2022-12-24T13:14:29.604Z,79.75
2022-12-24T13:17:46.042Z,79.52
2022-12-24T13:20:49.172Z,79.28
2022-12-24T13:23:51.708Z,79.13
2022-12-24T13:27:03.143Z,78.70
2022-12-24T13:30:10.631Z,78.26
2022-12-24T13:33:13.068Z,78.06
2022-12-24T13:36:16.516Z,77.85
2022-12-24T13:39:19.677Z,77.18
2022-12-24T13:42:55.890Z,77.49
2022-12-24T13:45:58.839Z,77.45
2022-12-24T13:49:12.221Z,77.46
2022-12-24T13:52:26.222Z,77.21
2022-12-24T13:55:28.827Z,77.11
2022-12-24T13:58:32.692Z,76.76
2022-12-24T14:01:36.953Z,76.56
2022-12-24T14:04:42.247Z,76.90
2022-12-24T14:07:46.754Z,76.54
2022-12-24T14:11:00.523Z,76.45
2022-12-24T14:14:27.972Z,76.37
2022-12-24T14:17:31.072Z,76.46
2022-12-24T14:20:33.655Z,76.58
2022-12-24T14:23:45.405Z,76.57
2022-12-24T14:26:49.291Z,76.44
2022-12-24T14:29:54.473Z,76.86
2022-12-24T14:32:57.382Z,76.44
2022-12-24T14:36:00.022Z,76.52
2022-12-24T14:39:02.597Z,76.58
2022-12-24T14:42:14.920Z,76.67
2022-12-24T14:45:27.114Z,77.27
2022-12-24T14:48:33.278Z,77.24
2022-12-24T14:51:37.670Z,77.52
2022-12-24T14:54:40.985Z,77.51
2022-12-24T14:57:43.578Z,77.58
2022-12-24T15:00:47.646Z,78.26
2022-12-24T15:04:01.533Z,78.54
2022-12-24T15:07:06.112Z,78.56
2022-12-24T15:10:09.876Z,79.26
2022-12-24T15:13:21.892Z,78.96
2022-12-24T15:16:27.392Z,79.40
2022-12-24T15:19:32.309Z,79.78
2022-12-24T15:22:34.901Z,79.63
2022-12-24T15:25:37.689Z,80.12
2022-12-24T15:28:40.413Z,80.66
2022-12-24T15:31:44.534Z,80.29
2022-12-24T15:34:47.933Z,81.10
2022-12-24T15:37:50.529Z,81.75
2022-12-24T15:40:53.122Z,81.17
2022-12-24T15:43:55.822Z,81.81
2022-12-24T15:47:01.083Z,81.53
2022-12-24T15:50:03.702Z,82.48
2022-12-24T15:53:18.777Z,82.74
2022-12-24T15:56:35.470Z,82.72
2022-12-24T15:59:38.076Z,83.09
2022-12-24T16:02:42.518Z,82.27
2022-12-24T16:05:45.665Z,83.46
2022-12-24T16:08:48.376Z,83.42
2022-12-24T16:11:50.963Z,83.47
2022-12-24T16:14:55.068Z,83.58
2022-12-24T16:17:58.952Z,83.54
2022-12-24T16:21:01.604Z,83.52
2022-12-24T16:24:07.106Z,83.79
2022-12-24T16:27:11.389Z,83.59
2022-12-24T16:30:14.109Z,83.59
2022-12-24T16:33:18.755Z,83.90
2022-12-24T16:36:21.338Z,84.70
2022-12-24T16:39:24.644Z,84.61
2022-12-24T16:42:44.699Z,84.50
2022-12-24T16:45:47.288Z,84.70
2022-12-24T16:48:51.177Z,84.61
2022-12-24T16:51:53.741Z,84.63
2022-12-24T16:54:56.389Z,85.27
2022-12-24T16:57:58.972Z,85.23
2022-12-24T17:01:07.813Z,85.46
2022-12-24T17:04:12.544Z,85.24
2022-12-24T17:07:15.848Z,85.60
2022-12-24T17:10:18.580Z,86.18
2022-12-24T17:13:21.209Z,85.95
2022-12-24T17:16:23.794Z,86.45
2022-12-24T17:19:27.718Z,86.78
2022-12-24T17:22:30.284Z,86.47
2022-12-24T17:25:32.860Z,86.77
2022-12-24T17:28:35.836Z,87.16
2022-12-24T17:31:39.186Z,87.66
2022-12-24T17:34:43.151Z,87.57
2022-12-24T17:37:45.739Z,88.14
2022-12-24T17:40:48.346Z,87.81
2022-12-24T17:43:50.917Z,88.58
2022-12-24T17:46:53.580Z,89.58
2022-12-24T17:49:57.533Z,90.01
2022-12-24T17:53:00.103Z,89.94
2022-12-24T17:56:02.688Z,90.16
2022-12-24T17:59:05.361Z,90.20
2022-12-24T18:02:07.983Z,90.27
2022-12-24T18:05:12.102Z,90.47
2022-12-24T18:08:14.683Z,89.89
2022-12-24T18:11:18.923Z,90.33
2022-12-24T18:14:21.493Z,90.21
2022-12-24T18:17:24.058Z,90.63
2022-12-24T18:20:27.984Z,90.33
2022-12-24T18:23:30.646Z,90.52
2022-12-24T18:26:33.495Z,90.64
2022-12-24T18:29:39.824Z,90.89
2022-12-24T18:32:42.424Z,90.83
2022-12-24T18:35:46.378Z,90.97
2022-12-24T18:38:49.025Z,91.13
2022-12-24T18:41:51.646Z,91.02
2022-12-24T18:44:54.230Z,91.59
2022-12-24T18:47:56.785Z,91.67
2022-12-24T18:51:01.551Z,91.77
2022-12-24T18:54:04.258Z,91.16
2022-12-24T18:57:06.898Z,91.55
2022-12-24T19:00:10.681Z,91.47
2022-12-24T19:03:16.426Z,91.31
2022-12-24T19:06:20.924Z,91.72
2022-12-24T19:09:23.516Z,91.56
2022-12-24T19:12:26.103Z,91.79
2022-12-24T19:15:35.491Z,92.08
2022-12-24T19:18:38.484Z,91.89
2022-12-24T19:21:42.444Z,92.05
2022-12-24T19:24:44.996Z,91.81
2022-12-24T19:27:47.558Z,92.04
2022-12-24T19:30:50.164Z,92.42
2022-12-24T19:33:53.434Z,92.51
2022-12-24T19:36:57.392Z,92.32
2022-12-24T19:39:59.985Z,92.29
2022-12-24T19:43:02.618Z,92.83
2022-12-24T19:46:05.401Z,92.84
2022-12-24T19:49:09.108Z,92.56
2022-12-24T19:52:13.282Z,93.16
2022-12-24T19:55:16.033Z,93.39
2022-12-24T19:58:18.580Z,93.22
2022-12-24T20:01:22.112Z,93.02
2022-12-24T20:04:25.019Z,93.18
2022-12-24T20:07:28.915Z,93.36
2022-12-24T20:10:31.448Z,93.47
2022-12-24T20:13:34.279Z,93.33
2022-12-24T20:16:36.974Z,93.55
2022-12-24T20:19:39.624Z,93.42
2022-12-24T20:22:43.559Z,93.76
2022-12-24T20:25:46.125Z,93.82
2022-12-24T20:28:48.811Z,94.09
2022-12-24T20:31:51.430Z,94.57
2022-12-24T20:34:54.097Z,94.57
2022-12-24T20:37:58.036Z,94.09
2022-12-24T20:41:00.599Z,94.43
2022-12-24T20:44:04.521Z,94.47
2022-12-24T20:47:07.657Z,94.87
2022-12-24T20:50:10.600Z,95.14
2022-12-24T20:53:14.536Z,95.05
2022-12-24T20:56:17.489Z,94.97
2022-12-24T20:59:21.195Z,95.02
2022-12-24T21:02:23.871Z,95.71
2022-12-24T21:05:26.601Z,95.78
2022-12-24T21:08:30.669Z,95.67
2022-12-24T21:11:50.732Z,96.02
2022-12-24T21:14:53.341Z,95.99
2022-12-24T21:17:55.940Z,96.03
2022-12-24T21:20:58.490Z,96.18
2022-12-24T21:24:02.444Z,96.28
2022-12-24T21:27:05.043Z,95.97
2022-12-24T21:30:08.855Z,96.30
2022-12-24T21:33:11.441Z,96.49
2022-12-24T21:36:14.412Z,96.74
2022-12-24T21:39:18.344Z,96.52
2022-12-24T21:42:20.923Z,96.97
2022-12-24T21:45:23.512Z,97.02
2022-12-24T21:48:43.821Z,96.90
2022-12-24T21:51:48.629Z,97.39
2022-12-24T21:54:52.574Z,96.81
2022-12-24T21:57:55.144Z,97.13
2022-12-24T22:00:57.779Z,97.67
2022-12-24T22:04:00.456Z,97.28
2022-12-24T22:07:21.056Z,97.29
2022-12-24T22:10:42.736Z,97.58
2022-12-24T22:13:45.360Z,97.21
2022-12-24T22:16:48.046Z,96.85
2022-12-24T22:19:50.658Z,96.91
2022-12-24T22:22:53.236Z,97.12
2022-12-24T22:25:57.197Z,97.58
2022-12-24T22:28:59.747Z,97.48
2022-12-24T22:32:02.311Z,97.67
2022-12-24T22:35:05.265Z,97.62
2022-12-24T22:38:08.464Z,97.79
2022-12-24T22:41:13.440Z,97.88
2022-12-24T22:44:16.026Z,97.77
2022-12-24T22:47:18.615Z,97.98
2022-12-24T22:50:21.216Z,97.94
2022-12-24T22:53:23.792Z,98.30
2022-12-24T22:56:28.579Z,98.24
2022-12-24T22:59:31.161Z,97.93
2022-12-24T23:02:33.955Z,97.69
2022-12-24T23:05:36.828Z,98.06
2022-12-24T23:08:39.481Z,97.70
2022-12-24T23:11:43.461Z,98.00
2022-12-24T23:14:57.238Z,98.27
2022-12-24T23:17:59.834Z,97.64
2022-12-24T23:21:05.568Z,98.12
2022-12-24T23:24:09.473Z,98.08
2022-12-24T23:27:13.414Z,97.51
2022-12-24T23:30:16.246Z,97.51
2022-12-24T23:33:18.764Z,97.56
2022-12-24T23:36:21.366Z,97.26
2022-12-24T23:39:23.964Z,97.22
2022-12-24T23:42:27.837Z,97.55
2022-12-24T23:45:30.408Z,97.27
2022-12-24T23:48:32.976Z,97.61
2022-12-24T23:51:35.583Z,97.52
2022-12-24T23:54:38.116Z,97.80
2022-12-24T23:57:42.034Z,97.56
